Conasauga, Tennessee
Current Conditions -  °F | °C
As of 5:15 PM on Wednesday 28 Jan 2015 (Local Time) from KRZR Reporting Station
Clear Clear  
Wind Chill: 45°   Ceiling: Unl
Heat Index: 45°   Visibility: 10mi
Dew Point:   Wind: 0mph
Humidity: 21%   Direction: NA
Pressure: 30.25"   Gusts: NA
Location:  35°N, 84.73°W
Report Text: KRZR 282215Z AUTO 00000KT 10SM CLR 07/M14 A3025 RMK
Loading
Personal Weather Stations






























Interactive Weather Map New forecast layout! Learn more

10-Day Weather Forecast

Advertisements
Track Severe Weather on mobile